KIDA Airport Information

Runway Information
Runway 02 Length 9002 ft width 150 ft
Elevation 4742 ft Threshold 0 ft Heading 38
Runway 20 Length 9002 ft Width 150 ft
Elevation 4731 ft Threshold 0 ft Heading 218
Runway 17 Length 4051 ft width 75 ft
Elevation 4731 ft Threshold 0 ft Heading 182
Runway 35 Length 4051 ft Width 75 ft
Elevation 4731 ft Threshold 0 ft Heading 2
Airport Frequencies
Type ASOS Name ASOS Frequency 135.325 MHZ
Type ATIS Name ATIS Frequency 135.325 MHZ
Type CNTR Name SALT LAKE Frequency 128.35 MHZ
Type CTAF Name CTAF Frequency 118.5 MHZ
Type GND Name GND Frequency 121.7 MHZ
Type RDO Name BOISE RDO Frequency 122.55 MHZ
Type TWR Name TWR Frequency 118.5 MHZ
Type UNIC Name UNICOM Frequency 122.95 MHZ
Airport Navaids
Type NDB Name Uconn Frequency 324 KHZ
Type VOR-DME Name Idaho Falls Frequency 113850 KHZ
Type NDB Name Sweden Frequency 350 KHZ
Airport Weather Information & NOTAM
ADDS - METARS form results

(0150 UTC 19 January 2018)
 
METAR text: KIDA 190053Z 00000KT 10SM BKN110 02/00 A2991 RMK AO2 SLP149 T00220000
Conditions at: KIDA (IDAHO FALLS , ID, US) observed 0053 UTC 19 January 2018
Temperature: 2.2°C (36°F)
Dewpoint: 0.0°C (32°F) [RH = 85%]
Pressure (altimeter): 29.91 inches Hg (1013.0 mb)
[Sea-level pressure: 1014.9 mb]
Winds: calm
Visibility: 10 or more miles (16+ km)
Ceiling: 11000 feet AGL
Clouds: broken clouds at 11000 feet AGL
Weather: no significant weather observed at this time